sensor_id;sensor_type;location;lat;lon;timestamp;temperature;humidity
70947;DHT22;58605;48.700;8.760;2022-11-20T00:01:59;4.60;99.90
70947;DHT22;58605;48.700;8.760;2022-11-20T00:04:25;4.60;99.90
70947;DHT22;58605;48.700;8.760;2022-11-20T00:06:51;4.90;99.90
70947;DHT22;58605;48.700;8.760;2022-11-20T00:09:17;5.20;99.90
70947;DHT22;58605;48.700;8.760;2022-11-20T00:11:43;5.50;99.90
70947;DHT22;58605;48.700;8.760;2022-11-20T00:14:12;5.40;99.90
70947;DHT22;58605;48.700;8.760;2022-11-20T00:16:40;5.30;99.90
70947;DHT22;58605;48.700;8.760;2022-11-20T00:19:06;5.10;99.90
70947;DHT22;58605;48.700;8.760;2022-11-20T00:21:32;4.90;99.90
70947;DHT22;58605;48.700;8.760;2022-11-20T00:23:58;4.80;99.90
70947;DHT22;58605;48.700;8.760;2022-11-20T00:26:25;4.60;99.90
70947;DHT22;58605;48.700;8.760;2022-11-20T00:28:53;4.40;99.90
70947;DHT22;58605;48.700;8.760;2022-11-20T00:31:20;4.30;99.90
70947;DHT22;58605;48.700;8.760;2022-11-20T00:33:48;4.20;99.90
70947;DHT22;58605;48.700;8.760;2022-11-20T00:36:16;4.30;99.90
70947;DHT22;58605;48.700;8.760;2022-11-20T00:38:43;4.10;99.90
70947;DHT22;58605;48.700;8.760;2022-11-20T00:41:10;3.90;99.90
70947;DHT22;58605;48.700;8.760;2022-11-20T00:43:37;3.80;99.90
70947;DHT22;58605;48.700;8.760;2022-11-20T00:46:05;3.70;99.90
70947;DHT22;58605;48.700;8.760;2022-11-20T00:48:31;3.60;99.90
70947;DHT22;58605;48.700;8.760;2022-11-20T00:50:59;3.50;99.90
70947;DHT22;58605;48.700;8.760;2022-11-20T00:53:25;3.40;99.90
70947;DHT22;58605;48.700;8.760;2022-11-20T00:55:55;3.30;99.90
70947;DHT22;58605;48.700;8.760;2022-11-20T00:58:22;3.20;99.90
70947;DHT22;58605;48.700;8.760;2022-11-20T01:00:48;3.10;99.90
70947;DHT22;58605;48.700;8.760;2022-11-20T01:03:15;3.00;99.90
70947;DHT22;58605;48.700;8.760;2022-11-20T01:05:41;2.90;99.90
70947;DHT22;58605;48.700;8.760;2022-11-20T01:08:09;2.90;99.90
70947;DHT22;58605;48.700;8.760;2022-11-20T01:10:35;3.00;99.90
70947;DHT22;58605;48.700;8.760;2022-11-20T01:13:01;3.00;99.90
70947;DHT22;58605;48.700;8.760;2022-11-20T01:15:46;3.00;99.90
70947;DHT22;58605;48.700;8.760;2022-11-20T01:18:12;2.90;99.90
70947;DHT22;58605;48.700;8.760;2022-11-20T01:20:38;2.90;99.90
70947;DHT22;58605;48.700;8.760;2022-11-20T01:23:04;2.90;99.90
70947;DHT22;58605;48.700;8.760;2022-11-20T01:25:31;2.80;99.90
70947;DHT22;58605;48.700;8.760;2022-11-20T01:27:57;2.80;99.90
70947;DHT22;58605;48.700;8.760;2022-11-20T01:30:23;2.70;99.90
70947;DHT22;58605;48.700;8.760;2022-11-20T01:32:49;2.80;99.90
70947;DHT22;58605;48.700;8.760;2022-11-20T01:35:15;2.80;99.90
70947;DHT22;58605;48.700;8.760;2022-11-20T01:37:41;2.70;99.90
70947;DHT22;58605;48.700;8.760;2022-11-20T01:40:07;2.70;99.90
70947;DHT22;58605;48.700;8.760;2022-11-20T01:42:35;2.80;99.90
70947;DHT22;58605;48.700;8.760;2022-11-20T01:45:59;2.90;99.90
70947;DHT22;58605;48.700;8.760;2022-11-20T01:48:27;2.80;99.90
70947;DHT22;58605;48.700;8.760;2022-11-20T01:50:54;2.80;99.90
70947;DHT22;58605;48.700;8.760;2022-11-20T01:53:23;2.80;99.90
70947;DHT22;58605;48.700;8.760;2022-11-20T01:55:52;2.70;99.90
70947;DHT22;58605;48.700;8.760;2022-11-20T01:58:23;2.70;99.90
70947;DHT22;58605;48.700;8.760;2022-11-20T02:00:52;2.70;99.90
70947;DHT22;58605;48.700;8.760;2022-11-20T02:03:19;2.70;99.90
70947;DHT22;58605;48.700;8.760;2022-11-20T02:05:49;2.90;99.90
70947;DHT22;58605;48.700;8.760;2022-11-20T02:08:17;2.90;99.90
70947;DHT22;58605;48.700;8.760;2022-11-20T02:10:43;2.90;99.90
70947;DHT22;58605;48.700;8.760;2022-11-20T02:13:09;3.10;99.90
70947;DHT22;58605;48.700;8.760;2022-11-20T02:15:56;3.30;99.90
70947;DHT22;58605;48.700;8.760;2022-11-20T02:18:23;3.50;99.90
70947;DHT22;58605;48.700;8.760;2022-11-20T02:20:53;3.60;99.90
70947;DHT22;58605;48.700;8.760;2022-11-20T02:23:24;3.50;99.90
70947;DHT22;58605;48.700;8.760;2022-11-20T02:25:54;3.50;99.90
70947;DHT22;58605;48.700;8.760;2022-11-20T02:28:21;3.40;99.90
70947;DHT22;58605;48.700;8.760;2022-11-20T02:30:47;3.40;99.90
70947;DHT22;58605;48.700;8.760;2022-11-20T02:33:13;3.40;99.90
70947;DHT22;58605;48.700;8.760;2022-11-20T02:35:53;3.30;99.90
70947;DHT22;58605;48.700;8.760;2022-11-20T02:38:19;3.10;99.90
70947;DHT22;58605;48.700;8.760;2022-11-20T02:40:46;3.00;99.90
70947;DHT22;58605;48.700;8.760;2022-11-20T02:43:15;3.10;99.90
70947;DHT22;58605;48.700;8.760;2022-11-20T02:45:41;3.30;99.90
70947;DHT22;58605;48.700;8.760;2022-11-20T02:48:07;3.60;99.90
70947;DHT22;58605;48.700;8.760;2022-11-20T02:50:33;3.60;99.90
70947;DHT22;58605;48.700;8.760;2022-11-20T02:52:59;3.70;99.90
70947;DHT22;58605;48.700;8.760;2022-11-20T02:55:25;3.40;99.90
70947;DHT22;58605;48.700;8.760;2022-11-20T02:57:51;3.20;99.90
70947;DHT22;58605;48.700;8.760;2022-11-20T03:00:18;3.10;99.90
70947;DHT22;58605;48.700;8.760;2022-11-20T03:02:44;3.00;99.90
70947;DHT22;58605;48.700;8.760;2022-11-20T03:05:10;3.40;99.90
70947;DHT22;58605;48.700;8.760;2022-11-20T03:07:36;3.60;99.90
70947;DHT22;58605;48.700;8.760;2022-11-20T03:10:03;3.80;99.90
70947;DHT22;58605;48.700;8.760;2022-11-20T03:12:29;4.00;99.90
70947;DHT22;58605;48.700;8.760;2022-11-20T03:14:54;4.30;99.90
70947;DHT22;58605;48.700;8.760;2022-11-20T03:17:22;4.20;99.90
70947;DHT22;58605;48.700;8.760;2022-11-20T03:19:48;3.90;99.90
70947;DHT22;58605;48.700;8.760;2022-11-20T03:22:14;3.80;99.90
70947;DHT22;58605;48.700;8.760;2022-11-20T03:24:40;3.70;99.90
70947;DHT22;58605;48.700;8.760;2022-11-20T03:27:06;3.50;99.90
70947;DHT22;58605;48.700;8.760;2022-11-20T03:29:32;3.30;99.90
70947;DHT22;58605;48.700;8.760;2022-11-20T03:31:58;3.30;99.90
70947;DHT22;58605;48.700;8.760;2022-11-20T03:34:25;3.20;99.90
70947;DHT22;58605;48.700;8.760;2022-11-20T03:36:58;3.10;99.90
70947;DHT22;58605;48.700;8.760;2022-11-20T03:39:24;3.10;99.90
70947;DHT22;58605;48.700;8.760;2022-11-20T03:41:50;3.30;99.90
70947;DHT22;58605;48.700;8.760;2022-11-20T03:44:15;3.30;99.90
70947;DHT22;58605;48.700;8.760;2022-11-20T03:46:41;3.20;99.90
70947;DHT22;58605;48.700;8.760;2022-11-20T03:49:07;3.20;99.90
70947;DHT22;58605;48.700;8.760;2022-11-20T03:51:36;3.20;99.90
70947;DHT22;58605;48.700;8.760;2022-11-20T03:54:04;3.30;99.90
70947;DHT22;58605;48.700;8.760;2022-11-20T03:56:33;3.20;99.90
70947;DHT22;58605;48.700;8.760;2022-11-20T03:58:59;3.30;99.90
70947;DHT22;58605;48.700;8.760;2022-11-20T04:01:26;3.30;99.90
70947;DHT22;58605;48.700;8.760;2022-11-20T04:03:53;3.30;99.90
70947;DHT22;58605;48.700;8.760;2022-11-20T04:06:21;3.40;99.90
70947;DHT22;58605;48.700;8.760;2022-11-20T04:08:49;3.40;99.90
70947;DHT22;58605;48.700;8.760;2022-11-20T04:11:17;3.50;99.90
70947;DHT22;58605;48.700;8.760;2022-11-20T04:13:47;3.60;99.90
70947;DHT22;58605;48.700;8.760;2022-11-20T04:16:14;3.90;99.90
70947;DHT22;58605;48.700;8.760;2022-11-20T04:18:40;4.10;99.90
70947;DHT22;58605;48.700;8.760;2022-11-20T04:21:06;4.30;99.90
70947;DHT22;58605;48.700;8.760;2022-11-20T04:23:33;4.40;99.90
70947;DHT22;58605;48.700;8.760;2022-11-20T04:26:03;4.40;99.90
70947;DHT22;58605;48.700;8.760;2022-11-20T04:28:29;4.40;99.90
70947;DHT22;58605;48.700;8.760;2022-11-20T04:31:02;4.20;99.90
70947;DHT22;58605;48.700;8.760;2022-11-20T04:33:28;3.90;99.90
70947;DHT22;58605;48.700;8.760;2022-11-20T04:35:54;3.70;99.90
70947;DHT22;58605;48.700;8.760;2022-11-20T04:38:20;3.70;99.90
70947;DHT22;58605;48.700;8.760;2022-11-20T04:40:46;3.70;99.90
70947;DHT22;58605;48.700;8.760;2022-11-20T04:43:13;3.60;99.90
70947;DHT22;58605;48.700;8.760;2022-11-20T04:45:39;3.60;99.90
70947;DHT22;58605;48.700;8.760;2022-11-20T04:48:05;3.60;99.90
70947;DHT22;58605;48.700;8.760;2022-11-20T04:50:31;3.60;99.90
70947;DHT22;58605;48.700;8.760;2022-11-20T04:52:57;3.50;99.90
70947;DHT22;58605;48.700;8.760;2022-11-20T04:55:23;3.60;99.90
70947;DHT22;58605;48.700;8.760;2022-11-20T04:57:50;3.80;99.90
70947;DHT22;58605;48.700;8.760;2022-11-20T05:00:19;4.30;99.90
70947;DHT22;58605;48.700;8.760;2022-11-20T05:02:45;4.50;99.90
70947;DHT22;58605;48.700;8.760;2022-11-20T05:05:10;4.80;99.90
70947;DHT22;58605;48.700;8.760;2022-11-20T05:07:36;5.00;99.90
70947;DHT22;58605;48.700;8.760;2022-11-20T05:10:03;5.10;99.90
70947;DHT22;58605;48.700;8.760;2022-11-20T05:12:29;5.20;99.90
70947;DHT22;58605;48.700;8.760;2022-11-20T05:14:55;5.30;99.90
70947;DHT22;58605;48.700;8.760;2022-11-20T05:17:22;5.40;99.90
70947;DHT22;58605;48.700;8.760;2022-11-20T05:19:48;5.50;99.90
70947;DHT22;58605;48.700;8.760;2022-11-20T05:22:14;5.60;99.90
70947;DHT22;58605;48.700;8.760;2022-11-20T05:24:40;5.60;99.90
70947;DHT22;58605;48.700;8.760;2022-11-20T05:27:06;5.70;99.90
70947;DHT22;58605;48.700;8.760;2022-11-20T05:29:32;5.70;99.90
70947;DHT22;58605;48.700;8.760;2022-11-20T05:31:58;5.80;99.90
70947;DHT22;58605;48.700;8.760;2022-11-20T05:34:25;5.80;99.90
70947;DHT22;58605;48.700;8.760;2022-11-20T05:36:51;5.80;99.90
70947;DHT22;58605;48.700;8.760;2022-11-20T05:39:17;5.80;99.90
70947;DHT22;58605;48.700;8.760;2022-11-20T05:41:43;5.80;99.90
70947;DHT22;58605;48.700;8.760;2022-11-20T05:44:10;5.70;99.90
70947;DHT22;58605;48.700;8.760;2022-11-20T05:46:36;5.80;99.90
70947;DHT22;58605;48.700;8.760;2022-11-20T05:49:02;5.80;99.90
70947;DHT22;58605;48.700;8.760;2022-11-20T05:51:29;5.80;99.90
70947;DHT22;58605;48.700;8.760;2022-11-20T05:53:56;5.80;99.90
70947;DHT22;58605;48.700;8.760;2022-11-20T05:56:29;5.80;99.90
70947;DHT22;58605;48.700;8.760;2022-11-20T05:58:56;5.70;99.90
70947;DHT22;58605;48.700;8.760;2022-11-20T06:01:24;5.80;99.90
70947;DHT22;58605;48.700;8.760;2022-11-20T06:03:52;5.80;99.90
70947;DHT22;58605;48.700;8.760;2022-11-20T06:06:19;5.80;99.90
70947;DHT22;58605;48.700;8.760;2022-11-20T06:08:46;5.80;99.90
70947;DHT22;58605;48.700;8.760;2022-11-20T06:11:14;5.80;99.90
70947;DHT22;58605;48.700;8.760;2022-11-20T06:13:40;5.90;99.90
70947;DHT22;58605;48.700;8.760;2022-11-20T06:16:06;5.90;99.90
70947;DHT22;58605;48.700;8.760;2022-11-20T06:18:32;5.90;99.90
70947;DHT22;58605;48.700;8.760;2022-11-20T06:21:04;5.90;99.90
70947;DHT22;58605;48.700;8.760;2022-11-20T06:23:31;5.90;99.90
70947;DHT22;58605;48.700;8.760;2022-11-20T06:26:01;5.80;99.90
70947;DHT22;58605;48.700;8.760;2022-11-20T06:28:27;5.80;99.90
70947;DHT22;58605;48.700;8.760;2022-11-20T06:30:53;5.70;99.90
70947;DHT22;58605;48.700;8.760;2022-11-20T06:33:19;5.70;99.90
70947;DHT22;58605;48.700;8.760;2022-11-20T06:35:45;5.70;99.90
70947;DHT22;58605;48.700;8.760;2022-11-20T06:38:10;5.70;99.90
70947;DHT22;58605;48.700;8.760;2022-11-20T06:40:40;5.70;99.90
70947;DHT22;58605;48.700;8.760;2022-11-20T06:43:07;5.70;99.90
70947;DHT22;58605;48.700;8.760;2022-11-20T06:45:33;5.70;99.90
70947;DHT22;58605;48.700;8.760;2022-11-20T06:47:59;5.80;99.90
70947;DHT22;58605;48.700;8.760;2022-11-20T06:50:25;5.80;99.90
70947;DHT22;58605;48.700;8.760;2022-11-20T06:52:51;5.90;99.90
70947;DHT22;58605;48.700;8.760;2022-11-20T06:55:17;5.80;99.90
70947;DHT22;58605;48.700;8.760;2022-11-20T06:57:43;5.80;99.90
70947;DHT22;58605;48.700;8.760;2022-11-20T07:00:12;5.90;99.90
70947;DHT22;58605;48.700;8.760;2022-11-20T07:02:38;5.90;99.90
70947;DHT22;58605;48.700;8.760;2022-11-20T07:05:04;5.90;99.90
70947;DHT22;58605;48.700;8.760;2022-11-20T07:07:30;5.90;99.90
70947;DHT22;58605;48.700;8.760;2022-11-20T07:09:56;5.90;99.90
70947;DHT22;58605;48.700;8.760;2022-11-20T07:12:22;6.00;99.90
70947;DHT22;58605;48.700;8.760;2022-11-20T07:14:51;6.10;99.90
70947;DHT22;58605;48.700;8.760;2022-11-20T07:17:18;6.20;99.90
70947;DHT22;58605;48.700;8.760;2022-11-20T07:19:44;6.30;99.90
70947;DHT22;58605;48.700;8.760;2022-11-20T07:22:10;6.30;99.90
70947;DHT22;58605;48.700;8.760;2022-11-20T07:24:36;6.30;99.90
70947;DHT22;58605;48.700;8.760;2022-11-20T07:27:02;6.50;99.90
70947;DHT22;58605;48.700;8.760;2022-11-20T07:29:28;6.70;99.90
70947;DHT22;58605;48.700;8.760;2022-11-20T07:31:54;6.70;99.90
70947;DHT22;58605;48.700;8.760;2022-11-20T07:34:23;6.70;99.90
70947;DHT22;58605;48.700;8.760;2022-11-20T07:36:49;6.80;99.90
70947;DHT22;58605;48.700;8.760;2022-11-20T07:39:15;6.60;99.90
70947;DHT22;58605;48.700;8.760;2022-11-20T07:41:41;6.40;99.90
70947;DHT22;58605;48.700;8.760;2022-11-20T07:44:07;6.40;99.90
70947;DHT22;58605;48.700;8.760;2022-11-20T07:46:33;6.20;99.90
70947;DHT22;58605;48.700;8.760;2022-11-20T07:48:59;6.10;99.90
70947;DHT22;58605;48.700;8.760;2022-11-20T07:51:26;6.10;99.90
70947;DHT22;58605;48.700;8.760;2022-11-20T07:53:52;6.10;99.90
70947;DHT22;58605;48.700;8.760;2022-11-20T07:56:18;6.00;99.90
70947;DHT22;58605;48.700;8.760;2022-11-20T07:58:44;6.10;99.90
70947;DHT22;58605;48.700;8.760;2022-11-20T08:01:10;6.00;99.90
70947;DHT22;58605;48.700;8.760;2022-11-20T08:03:36;6.00;99.90
70947;DHT22;58605;48.700;8.760;2022-11-20T08:06:06;6.00;99.90
70947;DHT22;58605;48.700;8.760;2022-11-20T08:08:33;6.00;99.90
70947;DHT22;58605;48.700;8.760;2022-11-20T08:10:59;6.00;99.90
70947;DHT22;58605;48.700;8.760;2022-11-20T08:13:44;6.00;99.90
70947;DHT22;58605;48.700;8.760;2022-11-20T08:16:28;6.00;99.90
70947;DHT22;58605;48.700;8.760;2022-11-20T08:18:54;5.90;99.90
70947;DHT22;58605;48.700;8.760;2022-11-20T08:21:20;5.90;99.90
70947;DHT22;58605;48.700;8.760;2022-11-20T08:23:48;5.90;99.90
70947;DHT22;58605;48.700;8.760;2022-11-20T08:26:14;5.90;99.90
70947;DHT22;58605;48.700;8.760;2022-11-20T08:28:40;5.90;99.90
70947;DHT22;58605;48.700;8.760;2022-11-20T08:31:06;5.90;99.90
70947;DHT22;58605;48.700;8.760;2022-11-20T08:33:32;5.90;99.90
70947;DHT22;58605;48.700;8.760;2022-11-20T08:35:59;5.90;99.90
70947;DHT22;58605;48.700;8.760;2022-11-20T08:38:26;5.90;99.90
70947;DHT22;58605;48.700;8.760;2022-11-20T08:40:56;5.90;99.90
70947;DHT22;58605;48.700;8.760;2022-11-20T08:43:41;5.90;99.90
70947;DHT22;58605;48.700;8.760;2022-11-20T08:46:06;5.90;99.90
70947;DHT22;58605;48.700;8.760;2022-11-20T08:48:32;5.90;99.90
70947;DHT22;58605;48.700;8.760;2022-11-20T08:50:59;5.90;99.90
70947;DHT22;58605;48.700;8.760;2022-11-20T08:53:25;5.90;99.90
70947;DHT22;58605;48.700;8.760;2022-11-20T08:55:50;5.90;99.90
70947;DHT22;58605;48.700;8.760;2022-11-20T08:58:18;5.90;99.90
70947;DHT22;58605;48.700;8.760;2022-11-20T09:00:44;5.80;99.90
70947;DHT22;58605;48.700;8.760;2022-11-20T09:03:10;5.80;99.90
70947;DHT22;58605;48.700;8.760;2022-11-20T09:05:36;5.80;99.90
70947;DHT22;58605;48.700;8.760;2022-11-20T09:08:02;5.80;99.90
70947;DHT22;58605;48.700;8.760;2022-11-20T09:10:28;5.80;99.90
70947;DHT22;58605;48.700;8.760;2022-11-20T09:12:54;5.80;99.90
70947;DHT22;58605;48.700;8.760;2022-11-20T09:15:23;5.80;99.90
70947;DHT22;58605;48.700;8.760;2022-11-20T09:17:52;5.90;99.90
70947;DHT22;58605;48.700;8.760;2022-11-20T09:20:18;5.90;99.90
70947;DHT22;58605;48.700;8.760;2022-11-20T09:22:44;5.80;99.90
70947;DHT22;58605;48.700;8.760;2022-11-20T09:25:10;5.90;99.90
70947;DHT22;58605;48.700;8.760;2022-11-20T09:27:36;5.90;99.90
70947;DHT22;58605;48.700;8.760;2022-11-20T09:30:03;5.90;99.90
70947;DHT22;58605;48.700;8.760;2022-11-20T09:32:31;5.90;99.90
70947;DHT22;58605;48.700;8.760;2022-11-20T09:34:57;5.90;99.90
70947;DHT22;58605;48.700;8.760;2022-11-20T09:37:23;6.00;99.90
70947;DHT22;58605;48.700;8.760;2022-11-20T09:39:49;6.00;99.90
70947;DHT22;58605;48.700;8.760;2022-11-20T09:42:26;6.00;99.90
70947;DHT22;58605;48.700;8.760;2022-11-20T09:45:12;6.10;99.90
70947;DHT22;58605;48.700;8.760;2022-11-20T09:50:36;6.10;99.90
70947;DHT22;58605;48.700;8.760;2022-11-20T09:53:12;6.10;99.90
70947;DHT22;58605;48.700;8.760;2022-11-20T09:55:39;6.10;99.90
70947;DHT22;58605;48.700;8.760;2022-11-20T09:58:06;6.10;99.90
70947;DHT22;58605;48.700;8.760;2022-11-20T10:00:34;6.10;99.90
70947;DHT22;58605;48.700;8.760;2022-11-20T10:03:06;6.10;99.90
70947;DHT22;58605;48.700;8.760;2022-11-20T10:05:41;6.20;99.90
70947;DHT22;58605;48.700;8.760;2022-11-20T10:08:14;6.20;99.90
70947;DHT22;58605;48.700;8.760;2022-11-20T10:10:44;6.30;99.90
70947;DHT22;58605;48.700;8.760;2022-11-20T10:13:24;6.40;99.90
70947;DHT22;58605;48.700;8.760;2022-11-20T10:16:02;6.40;99.90
70947;DHT22;58605;48.700;8.760;2022-11-20T10:18:41;6.40;99.90
70947;DHT22;58605;48.700;8.760;2022-11-20T10:21:23;6.50;99.90
70947;DHT22;58605;48.700;8.760;2022-11-20T10:27:00;6.50;99.90
70947;DHT22;58605;48.700;8.760;2022-11-20T10:29:33;6.40;99.90
70947;DHT22;58605;48.700;8.760;2022-11-20T10:32:02;6.40;99.90
70947;DHT22;58605;48.700;8.760;2022-11-20T10:34:33;6.30;99.90
70947;DHT22;58605;48.700;8.760;2022-11-20T10:37:02;6.40;99.90
70947;DHT22;58605;48.700;8.760;2022-11-20T10:39:35;6.40;99.90
70947;DHT22;58605;48.700;8.760;2022-11-20T10:42:09;6.40;99.90
70947;DHT22;58605;48.700;8.760;2022-11-20T10:44:36;6.50;99.90
70947;DHT22;58605;48.700;8.760;2022-11-20T10:47:24;6.50;99.90
70947;DHT22;58605;48.700;8.760;2022-11-20T10:49:54;6.50;99.90
70947;DHT22;58605;48.700;8.760;2022-11-20T10:52:25;6.70;99.90
70947;DHT22;58605;48.700;8.760;2022-11-20T10:55:03;6.50;99.90
70947;DHT22;58605;48.700;8.760;2022-11-20T10:57:45;6.50;99.90
70947;DHT22;58605;48.700;8.760;2022-11-20T11:00:13;6.60;99.90
70947;DHT22;58605;48.700;8.760;2022-11-20T11:02:42;6.50;99.90
70947;DHT22;58605;48.700;8.760;2022-11-20T11:05:25;6.50;99.90
70947;DHT22;58605;48.700;8.760;2022-11-20T11:07:55;6.50;99.90
70947;DHT22;58605;48.700;8.760;2022-11-20T11:10:25;6.60;99.90
70947;DHT22;58605;48.700;8.760;2022-11-20T11:12:51;6.70;99.90
70947;DHT22;58605;48.700;8.760;2022-11-20T11:15:26;6.50;99.90
70947;DHT22;58605;48.700;8.760;2022-11-20T11:17:52;6.40;99.90
70947;DHT22;58605;48.700;8.760;2022-11-20T11:20:21;6.40;99.90
70947;DHT22;58605;48.700;8.760;2022-11-20T11:22:49;6.30;99.90
70947;DHT22;58605;48.700;8.760;2022-11-20T11:25:24;6.30;99.90
70947;DHT22;58605;48.700;8.760;2022-11-20T11:27:52;6.30;99.90
70947;DHT22;58605;48.700;8.760;2022-11-20T11:30:19;6.30;99.90
70947;DHT22;58605;48.700;8.760;2022-11-20T11:32:46;6.30;99.90
70947;DHT22;58605;48.700;8.760;2022-11-20T11:35:22;6.30;99.90
70947;DHT22;58605;48.700;8.760;2022-11-20T11:37:49;6.40;99.90
70947;DHT22;58605;48.700;8.760;2022-11-20T11:40:18;6.30;99.90
70947;DHT22;58605;48.700;8.760;2022-11-20T11:42:50;6.40;99.90
70947;DHT22;58605;48.700;8.760;2022-11-20T11:45:18;6.30;99.90
70947;DHT22;58605;48.700;8.760;2022-11-20T11:47:46;6.30;99.90
70947;DHT22;58605;48.700;8.760;2022-11-20T11:50:20;6.40;99.90
70947;DHT22;58605;48.700;8.760;2022-11-20T11:52:56;6.40;99.90
70947;DHT22;58605;48.700;8.760;2022-11-20T11:55:30;6.50;99.90
70947;DHT22;58605;48.700;8.760;2022-11-20T11:58:06;6.50;99.90
70947;DHT22;58605;48.700;8.760;2022-11-20T12:00:35;6.40;99.90
70947;DHT22;58605;48.700;8.760;2022-11-20T12:03:07;6.40;99.90
70947;DHT22;58605;48.700;8.760;2022-11-20T12:05:40;6.50;99.90
70947;DHT22;58605;48.700;8.760;2022-11-20T12:08:15;6.60;99.90
70947;DHT22;58605;48.700;8.760;2022-11-20T12:10:46;6.60;99.90
70947;DHT22;58605;48.700;8.760;2022-11-20T12:13:21;6.50;99.90
70947;DHT22;58605;48.700;8.760;2022-11-20T12:15:50;6.50;99.90
70947;DHT22;58605;48.700;8.760;2022-11-20T12:18:18;6.50;99.90
70947;DHT22;58605;48.700;8.760;2022-11-20T12:20:56;6.50;99.90
70947;DHT22;58605;48.700;8.760;2022-11-20T12:23:31;6.50;99.90
70947;DHT22;58605;48.700;8.760;2022-11-20T12:26:05;6.50;99.90
70947;DHT22;58605;48.700;8.760;2022-11-20T12:28:55;6.60;99.90
70947;DHT22;58605;48.700;8.760;2022-11-20T12:31:43;6.60;99.90
70947;DHT22;58605;48.700;8.760;2022-11-20T12:34:24;6.70;99.90
70947;DHT22;58605;48.700;8.760;2022-11-20T12:37:00;6.60;99.90
70947;DHT22;58605;48.700;8.760;2022-11-20T12:39:35;6.60;99.90
70947;DHT22;58605;48.700;8.760;2022-11-20T12:42:25;6.60;99.90
70947;DHT22;58605;48.700;8.760;2022-11-20T12:45:24;6.60;99.90
70947;DHT22;58605;48.700;8.760;2022-11-20T12:48:14;6.60;99.90
70947;DHT22;58605;48.700;8.760;2022-11-20T12:50:51;6.60;99.90
70947;DHT22;58605;48.700;8.760;2022-11-20T12:53:27;6.60;99.90
70947;DHT22;58605;48.700;8.760;2022-11-20T12:56:03;6.60;99.90
70947;DHT22;58605;48.700;8.760;2022-11-20T12:58:38;6.50;99.90
70947;DHT22;58605;48.700;8.760;2022-11-20T13:01:15;6.60;99.90
70947;DHT22;58605;48.700;8.760;2022-11-20T13:04:09;6.60;99.90
70947;DHT22;58605;48.700;8.760;2022-11-20T13:06:37;6.70;99.90
70947;DHT22;58605;48.700;8.760;2022-11-20T13:09:09;6.70;99.90
70947;DHT22;58605;48.700;8.760;2022-11-20T13:11:42;6.70;99.90
70947;DHT22;58605;48.700;8.760;2022-11-20T13:14:24;6.80;99.90
70947;DHT22;58605;48.700;8.760;2022-11-20T13:16:55;6.80;99.90
70947;DHT22;58605;48.700;8.760;2022-11-20T13:19:23;7.00;99.90
70947;DHT22;58605;48.700;8.760;2022-11-20T13:21:50;7.10;99.90
70947;DHT22;58605;48.700;8.760;2022-11-20T13:24:35;7.20;99.90
70947;DHT22;58605;48.700;8.760;2022-11-20T13:27:05;7.20;99.90
70947;DHT22;58605;48.700;8.760;2022-11-20T13:29:44;7.40;99.90
70947;DHT22;58605;48.700;8.760;2022-11-20T13:32:15;7.50;99.90
70947;DHT22;58605;48.700;8.760;2022-11-20T13:34:51;7.60;99.90
70947;DHT22;58605;48.700;8.760;2022-11-20T13:37:25;7.70;99.90
70947;DHT22;58605;48.700;8.760;2022-11-20T13:40:20;7.60;99.90
70947;DHT22;58605;48.700;8.760;2022-11-20T13:42:55;7.40;99.90
70947;DHT22;58605;48.700;8.760;2022-11-20T13:45:23;7.40;99.90
70947;DHT22;58605;48.700;8.760;2022-11-20T13:47:51;7.20;99.90
70947;DHT22;58605;48.700;8.760;2022-11-20T13:50:17;7.00;99.90
70947;DHT22;58605;48.700;8.760;2022-11-20T13:52:50;7.00;99.90
70947;DHT22;58605;48.700;8.760;2022-11-20T13:55:23;7.10;99.90
70947;DHT22;58605;48.700;8.760;2022-11-20T13:57:57;7.10;99.90
70947;DHT22;58605;48.700;8.760;2022-11-20T14:00:26;7.30;99.90
70947;DHT22;58605;48.700;8.760;2022-11-20T14:03:01;7.30;99.90
70947;DHT22;58605;48.700;8.760;2022-11-20T14:05:28;7.30;99.90
70947;DHT22;58605;48.700;8.760;2022-11-20T14:07:57;7.00;99.90
70947;DHT22;58605;48.700;8.760;2022-11-20T14:10:27;6.90;99.90
70947;DHT22;58605;48.700;8.760;2022-11-20T14:12:53;7.00;99.90
70947;DHT22;58605;48.700;8.760;2022-11-20T14:15:27;6.90;99.90
70947;DHT22;58605;48.700;8.760;2022-11-20T14:17:54;6.80;99.90
70947;DHT22;58605;48.700;8.760;2022-11-20T14:20:24;6.80;99.90
70947;DHT22;58605;48.700;8.760;2022-11-20T14:22:51;6.70;99.90
70947;DHT22;58605;48.700;8.760;2022-11-20T14:25:22;6.60;99.90
70947;DHT22;58605;48.700;8.760;2022-11-20T14:27:53;6.60;99.90
70947;DHT22;58605;48.700;8.760;2022-11-20T14:30:21;6.50;99.90
70947;DHT22;58605;48.700;8.760;2022-11-20T14:32:49;6.50;99.90
70947;DHT22;58605;48.700;8.760;2022-11-20T14:35:19;6.60;99.90
70947;DHT22;58605;48.700;8.760;2022-11-20T14:37:46;6.60;99.90
70947;DHT22;58605;48.700;8.760;2022-11-20T14:40:30;6.50;99.90
70947;DHT22;58605;48.700;8.760;2022-11-20T14:42:58;6.50;99.90
70947;DHT22;58605;48.700;8.760;2022-11-20T14:45:25;6.50;99.90
70947;DHT22;58605;48.700;8.760;2022-11-20T14:47:52;6.50;99.90
70947;DHT22;58605;48.700;8.760;2022-11-20T14:50:22;6.50;99.90
70947;DHT22;58605;48.700;8.760;2022-11-20T14:52:53;6.60;99.90
70947;DHT22;58605;48.700;8.760;2022-11-20T14:55:26;6.60;99.90
70947;DHT22;58605;48.700;8.760;2022-11-20T14:57:57;6.60;99.90
70947;DHT22;58605;48.700;8.760;2022-11-20T15:00:24;6.60;99.90
70947;DHT22;58605;48.700;8.760;2022-11-20T15:02:51;6.50;99.90
70947;DHT22;58605;48.700;8.760;2022-11-20T15:05:18;6.60;99.90
70947;DHT22;58605;48.700;8.760;2022-11-20T15:07:47;6.60;99.90
70947;DHT22;58605;48.700;8.760;2022-11-20T15:10:20;6.70;99.90
70947;DHT22;58605;48.700;8.760;2022-11-20T15:12:49;6.60;99.90
70947;DHT22;58605;48.700;8.760;2022-11-20T15:15:20;6.60;99.90
70947;DHT22;58605;48.700;8.760;2022-11-20T15:17:47;6.60;99.90
70947;DHT22;58605;48.700;8.760;2022-11-20T15:20:14;6.60;99.90
70947;DHT22;58605;48.700;8.760;2022-11-20T15:22:41;6.50;99.90
70947;DHT22;58605;48.700;8.760;2022-11-20T15:25:12;6.60;99.90
70947;DHT22;58605;48.700;8.760;2022-11-20T15:27:38;6.60;99.90
70947;DHT22;58605;48.700;8.760;2022-11-20T15:30:12;6.60;99.90
70947;DHT22;58605;48.700;8.760;2022-11-20T15:32:41;6.60;99.90
70947;DHT22;58605;48.700;8.760;2022-11-20T15:35:08;6.60;99.90
70947;DHT22;58605;48.700;8.760;2022-11-20T15:37:34;6.60;99.90
70947;DHT22;58605;48.700;8.760;2022-11-20T15:40:00;6.60;99.90
70947;DHT22;58605;48.700;8.760;2022-11-20T15:42:26;6.50;99.90
70947;DHT22;58605;48.700;8.760;2022-11-20T15:44:52;6.50;99.90
70947;DHT22;58605;48.700;8.760;2022-11-20T15:47:18;6.50;99.90
70947;DHT22;58605;48.700;8.760;2022-11-20T15:49:46;6.50;99.90
70947;DHT22;58605;48.700;8.760;2022-11-20T15:52:13;6.60;99.90
70947;DHT22;58605;48.700;8.760;2022-11-20T15:54:39;6.60;99.90
70947;DHT22;58605;48.700;8.760;2022-11-20T15:57:05;6.70;99.90
70947;DHT22;58605;48.700;8.760;2022-11-20T15:59:31;6.70;99.90
70947;DHT22;58605;48.700;8.760;2022-11-20T16:01:57;6.60;99.90
70947;DHT22;58605;48.700;8.760;2022-11-20T16:04:23;6.60;99.90